Time;durP1;ratioP1;P1;durP2;ratioP2;P2;SDS_P1;SDS_P2;PMS_P1;PMS_P2;Temp;Humidity;BMP_temperature;BMP_pressure;BME280_temperature;BME280_humidity;BME280_pressure;Samples;Min_cycle;Max_cycle;Signal;HPM_P1;HPM_P2
2024/01/19 00:02:18;;;;;;;0.50;0.10;;;1.20;99.90;;;;;;5053344;28;20497;-73
2024/01/19 00:04:47;;;;;;;3.00;2.90;;;;;;;;;;5053186;28;20533;-73
2024/01/19 00:07:16;;;;;;;2.10;2.00;;;1.00;99.90;;;;;;5054102;28;20544;-72
2024/01/19 00:09:44;;;;;;;0.50;0.10;;;1.00;99.90;;;;;;5046317;28;20445;-72
2024/01/19 00:12:12;;;;;;;0.50;0.10;;;0.90;99.90;;;;;;5055552;28;20462;-72
2024/01/19 00:14:40;;;;;;;0.50;0.10;;;0.90;99.90;;;;;;5052452;28;20446;-72
2024/01/19 00:17:07;;;;;;;0.50;0.10;;;0.80;99.90;;;;;;5052653;28;20531;-72
2024/01/19 00:19:35;;;;;;;0.50;0.10;;;0.80;99.90;;;;;;5052399;28;20482;-72
2024/01/19 00:22:03;;;;;;;0.50;0.10;;;0.80;99.90;;;;;;5052639;28;20533;-72
2024/01/19 00:24:32;;;;;;;0.50;0.10;;;0.70;99.90;;;;;;5052002;28;20450;-72
2024/01/19 00:27:00;;;;;;;0.50;0.10;;;0.70;99.90;;;;;;5052056;28;20564;-72
2024/01/19 00:29:29;;;;;;;0.50;0.10;;;0.70;99.90;;;;;;5052151;28;20442;-72
2024/01/19 00:31:56;;;;;;;0.50;0.10;;;0.80;99.90;;;;;;5052222;28;20474;-72
2024/01/19 00:34:24;;;;;;;0.50;0.30;;;0.70;99.90;;;;;;5052175;28;20446;-72
2024/01/19 00:36:52;;;;;;;0.50;0.10;;;0.60;99.90;;;;;;5052492;28;20466;-71
2024/01/19 00:39:20;;;;;;;0.50;0.10;;;0.60;99.90;;;;;;5051846;28;20543;-72
2024/01/19 00:41:49;;;;;;;0.50;0.10;;;0.60;99.90;;;;;;5051158;28;20468;-72
2024/01/19 00:44:17;;;;;;;0.50;0.10;;;0.60;99.90;;;;;;5054201;28;20469;-74
2024/01/19 00:46:47;;;;;;;0.50;0.10;;;0.70;99.90;;;;;;5056792;28;20549;-71
2024/01/19 00:49:15;;;;;;;0.50;0.20;;;0.70;99.90;;;;;;5057073;28;20549;-72
2024/01/19 00:51:43;;;;;;;0.50;0.10;;;0.70;99.90;;;;;;5056404;28;20446;-72
2024/01/19 00:54:11;;;;;;;0.50;0.10;;;0.60;99.90;;;;;;5062409;28;20470;-72
2024/01/19 00:56:38;;;;;;;0.50;0.10;;;0.50;99.90;;;;;;5053129;28;20520;-72
2024/01/19 00:59:08;;;;;;;0.50;0.10;;;0.50;99.90;;;;;;5059714;28;20485;-72
2024/01/19 01:01:36;;;;;;;0.50;0.10;;;0.50;99.90;;;;;;5059463;28;20446;-72
2024/01/19 01:04:05;;;;;;;0.50;0.10;;;0.50;99.90;;;;;;5052530;28;20533;-72
2024/01/19 01:06:33;;;;;;;0.50;0.10;;;0.50;99.90;;;;;;5052597;28;20470;-73
2024/01/19 01:09:02;;;;;;;0.50;0.10;;;0.40;99.90;;;;;;5052058;28;20446;-72
2024/01/19 01:11:30;;;;;;;0.50;0.10;;;0.40;99.90;;;;;;5052104;28;20442;-72
2024/01/19 01:13:58;;;;;;;0.50;0.10;;;0.50;99.90;;;;;;5051840;28;20442;-72
2024/01/19 01:16:29;;;;;;;0.50;0.10;;;0.50;99.90;;;;;;5056799;28;20531;-73
2024/01/19 01:18:58;;;;;;;0.50;0.10;;;0.50;99.90;;;;;;5052029;28;20446;-72
2024/01/19 01:21:26;;;;;;;0.50;0.10;;;0.50;99.90;;;;;;5054369;28;20453;-72
2024/01/19 01:23:54;;;;;;;0.50;0.10;;;0.50;99.90;;;;;;5051794;28;20481;-73
2024/01/19 01:26:22;;;;;;;0.50;0.10;;;0.40;99.90;;;;;;5051836;28;20473;-71
2024/01/19 01:28:49;;;;;;;0.50;0.10;;;0.40;99.90;;;;;;5051483;28;20954;-72
2024/01/19 01:31:17;;;;;;;0.50;0.10;;;0.40;99.90;;;;;;5051849;28;20442;-71
2024/01/19 01:33:47;;;;;;;0.50;0.10;;;0.50;99.90;;;;;;5050109;28;20470;-71
2024/01/19 01:36:15;;;;;;;0.50;0.10;;;0.50;99.90;;;;;;5047932;28;20465;-72
2024/01/19 01:38:43;;;;;;;0.50;0.10;;;0.50;99.90;;;;;;5057397;28;20489;-72
2024/01/19 01:41:11;;;;;;;0.50;0.10;;;0.50;99.90;;;;;;5051838;28;20551;-72
2024/01/19 01:43:39;;;;;;;0.50;0.10;;;0.50;99.90;;;;;;5051159;28;20528;-72
2024/01/19 01:46:07;;;;;;;0.50;0.10;;;0.50;99.90;;;;;;5054656;28;20462;-72
2024/01/19 01:48:35;;;;;;;0.50;0.10;;;0.40;99.90;;;;;;5055611;28;20528;-72
2024/01/19 01:51:05;;;;;;;3.07;2.87;;;0.50;99.90;;;;;;5055600;28;20495;-72
2024/01/19 01:53:33;;;;;;;0.50;0.10;;;0.50;99.90;;;;;;5046997;28;20462;-72
2024/01/19 01:56:01;;;;;;;7.83;7.43;;;0.50;99.90;;;;;;5055797;28;20465;-73
2024/01/19 01:58:29;;;;;;;0.50;0.10;;;0.50;99.90;;;;;;5055061;28;20889;-72
2024/01/19 02:00:58;;;;;;;0.50;0.10;;;0.50;99.90;;;;;;5055081;28;20482;-72
2024/01/19 02:03:26;;;;;;;0.50;0.10;;;0.40;99.90;;;;;;5055060;28;20437;-72
2024/01/19 02:05:54;;;;;;;0.50;0.10;;;0.40;99.90;;;;;;5054575;28;20469;-72
2024/01/19 02:08:24;;;;;;;0.60;0.10;;;0.40;99.90;;;;;;5055405;28;20529;-72
2024/01/19 02:10:52;;;;;;;0.50;0.10;;;0.30;99.90;;;;;;5056725;28;20453;-72
2024/01/19 02:13:20;;;;;;;0.50;0.10;;;0.20;99.90;;;;;;5059894;28;20450;-72
2024/01/19 02:15:47;;;;;;;0.50;0.10;;;0.30;99.90;;;;;;5063014;28;20442;-71
2024/01/19 02:18:15;;;;;;;0.50;0.10;;;0.30;99.90;;;;;;5060564;28;20452;-71
2024/01/19 02:20:43;;;;;;;0.50;0.10;;;0.30;99.90;;;;;;5046891;28;20531;-72
2024/01/19 02:23:14;;;;;;;0.50;0.10;;;0.30;99.90;;;;;;5055092;28;20541;-73
2024/01/19 02:25:43;;;;;;;0.50;0.10;;;;;;;;;;5055050;28;20474;-72
2024/01/19 02:28:11;;;;;;;0.60;0.50;;;0.30;99.90;;;;;;5059556;28;20469;-72
2024/01/19 02:30:40;;;;;;;0.50;0.10;;;0.30;99.90;;;;;;5054545;28;20434;-72
2024/01/19 02:33:08;;;;;;;0.50;0.10;;;0.20;99.90;;;;;;5054330;28;20477;-73
2024/01/19 02:35:36;;;;;;;0.50;0.10;;;0.20;99.90;;;;;;5055227;28;20446;-71
2024/01/19 02:38:04;;;;;;;0.50;0.10;;;0.00;99.90;;;;;;5054849;28;20465;-72
2024/01/19 02:40:32;;;;;;;0.50;0.10;;;0.00;99.90;;;;;;5054421;28;20474;-72
2024/01/19 02:43:01;;;;;;;0.50;0.10;;;0.00;99.90;;;;;;5053986;28;20466;-72
2024/01/19 02:45:29;;;;;;;0.50;0.10;;;0.00;99.90;;;;;;5052239;28;20442;-72
2024/01/19 02:47:57;;;;;;;0.50;0.10;;;0.00;99.90;;;;;;5054253;28;21057;-72
2024/01/19 02:50:25;;;;;;;0.50;0.10;;;0.00;99.90;;;;;;5054275;28;20465;-72
2024/01/19 02:52:53;;;;;;;0.50;0.10;;;0.10;99.90;;;;;;5054602;28;20438;-72
2024/01/19 02:55:21;;;;;;;0.50;0.10;;;0.10;99.90;;;;;;5053809;28;20529;-71
2024/01/19 02:57:49;;;;;;;0.50;0.10;;;0.10;99.90;;;;;;5054154;28;20612;-72
2024/01/19 03:00:18;;;;;;;0.80;0.80;;;0.10;99.90;;;;;;5053697;28;20940;-72
2024/01/19 03:02:46;;;;;;;0.50;0.10;;;0.10;99.90;;;;;;5054271;28;20538;-72
2024/01/19 03:05:14;;;;;;;0.50;0.20;;;0.10;99.90;;;;;;5053297;28;20481;-72
2024/01/19 03:07:42;;;;;;;0.50;0.10;;;0.10;99.90;;;;;;5053873;28;20470;-72
2024/01/19 03:10:10;;;;;;;0.50;0.10;;;0.10;99.90;;;;;;5054171;28;20442;-72
2024/01/19 03:12:38;;;;;;;0.50;0.10;;;0.00;99.90;;;;;;5053766;28;20461;-72
2024/01/19 03:15:06;;;;;;;0.50;0.10;;;0.00;99.90;;;;;;5054731;28;20938;-72
2024/01/19 03:17:36;;;;;;;0.50;0.10;;;0.00;99.90;;;;;;5056453;28;20498;-72
2024/01/19 03:20:05;;;;;;;0.50;0.10;;;0.00;99.90;;;;;;5056970;28;20962;-72
2024/01/19 03:22:33;;;;;;;0.60;0.50;;;-0.10;99.90;;;;;;5056061;28;20984;-72
2024/01/19 03:25:01;;;;;;;0.60;0.10;;;-0.20;99.90;;;;;;5055797;28;20454;-72
2024/01/19 03:27:29;;;;;;;0.50;0.10;;;-0.10;99.90;;;;;;5054485;28;20473;-72
2024/01/19 03:29:56;;;;;;;0.50;0.10;;;-0.20;99.90;;;;;;5053849;28;20454;-71
2024/01/19 03:32:24;;;;;;;0.50;0.10;;;-0.10;99.90;;;;;;5053755;28;20485;-71
2024/01/19 03:34:54;;;;;;;0.50;0.10;;;-0.10;99.90;;;;;;5054548;28;20461;-71
2024/01/19 03:37:22;;;;;;;0.50;0.20;;;-0.10;99.90;;;;;;5054936;28;20988;-71
2024/01/19 03:39:50;;;;;;;0.83;0.83;;;-0.20;99.90;;;;;;5057215;28;20541;-72
2024/01/19 03:42:18;;;;;;;0.50;0.10;;;-0.20;99.90;;;;;;5056847;28;20564;-72
2024/01/19 03:44:45;;;;;;;0.50;0.10;;;-0.20;99.90;;;;;;5055211;28;20476;-73
2024/01/19 03:47:13;;;;;;;0.50;0.10;;;-0.20;99.90;;;;;;5054280;28;20557;-73
2024/01/19 03:49:41;;;;;;;0.50;0.10;;;-0.20;99.90;;;;;;5054450;28;20840;-72
2024/01/19 03:52:11;;;;;;;0.50;0.10;;;-0.20;99.90;;;;;;5055261;28;21122;-72
2024/01/19 03:54:39;;;;;;;0.50;0.10;;;-0.10;99.90;;;;;;5054310;28;20544;-72
2024/01/19 03:57:08;;;;;;;0.50;0.10;;;-0.20;99.90;;;;;;5053808;28;20474;-72
2024/01/19 03:59:36;;;;;;;0.50;0.10;;;-0.30;99.90;;;;;;5053592;28;20468;-72
2024/01/19 04:02:05;;;;;;;0.50;0.10;;;-0.30;99.90;;;;;;5053994;28;20478;-71
2024/01/19 04:04:33;;;;;;;0.50;0.10;;;-0.30;99.90;;;;;;5054135;28;20466;-72
2024/01/19 04:07:02;;;;;;;0.50;0.10;;;-0.30;99.90;;;;;;5052985;28;20576;-71
2024/01/19 04:09:31;;;;;;;0.50;0.10;;;-0.40;99.90;;;;;;5053542;28;20446;-72
2024/01/19 04:11:59;;;;;;;0.50;0.10;;;-0.40;99.90;;;;;;5052835;28;20460;-71
2024/01/19 04:14:27;;;;;;;0.50;0.10;;;-0.40;99.90;;;;;;5052168;28;20824;-72
2024/01/19 04:16:57;;;;;;;0.60;0.43;;;-0.40;99.90;;;;;;5052694;28;20469;-72
2024/01/19 04:19:25;;;;;;;0.50;0.10;;;-0.30;99.90;;;;;;5052405;28;20448;-72
2024/01/19 04:21:53;;;;;;;0.50;0.10;;;-0.30;99.90;;;;;;5051381;28;20489;-72
2024/01/19 04:24:21;;;;;;;0.50;0.10;;;-0.30;99.90;;;;;;5052731;28;20525;-72
2024/01/19 04:26:50;;;;;;;0.50;0.10;;;-0.30;99.90;;;;;;5052452;28;20515;-72
2024/01/19 04:29:18;;;;;;;0.50;0.10;;;-0.30;99.90;;;;;;5052581;28;21123;-72
2024/01/19 04:31:46;;;;;;;0.50;0.10;;;-0.40;99.90;;;;;;5051806;28;20442;-72
2024/01/19 04:34:14;;;;;;;2.10;2.00;;;-0.40;99.90;;;;;;5052372;28;20500;-72
2024/01/19 04:36:42;;;;;;;0.50;0.10;;;-0.50;99.90;;;;;;5051956;28;20493;-72
2024/01/19 04:39:10;;;;;;;0.50;0.10;;;-0.60;99.90;;;;;;5047821;28;20550;-72
2024/01/19 04:41:38;;;;;;;0.50;0.10;;;-0.60;99.90;;;;;;5050267;28;20901;-72
2024/01/19 04:44:07;;;;;;;0.50;0.10;;;-0.60;99.90;;;;;;5052406;28;20450;-72
2024/01/19 04:46:35;;;;;;;0.50;0.10;;;-0.60;99.90;;;;;;5050907;28;20493;-72
2024/01/19 04:49:04;;;;;;;0.50;0.10;;;-0.60;99.90;;;;;;5046467;28;20515;-72
2024/01/19 04:51:32;;;;;;;0.50;0.10;;;-0.60;99.90;;;;;;5051772;28;20472;-72
2024/01/19 04:53:59;;;;;;;0.50;0.10;;;-0.50;99.90;;;;;;5057602;28;20545;-72
2024/01/19 04:56:28;;;;;;;0.50;0.20;;;-0.50;99.90;;;;;;5052142;28;20519;-72
2024/01/19 04:58:56;;;;;;;0.70;0.60;;;-0.50;99.90;;;;;;5051967;28;20481;-72
2024/01/19 05:01:25;;;;;;;0.50;0.10;;;-0.50;99.90;;;;;;5047379;28;20503;-72
2024/01/19 05:03:53;;;;;;;5.80;5.40;;;-0.50;99.90;;;;;;5051516;28;20450;-72
2024/01/19 05:06:20;;;;;;;0.50;0.10;;;-0.60;99.90;;;;;;5050825;28;20550;-72
2024/01/19 05:08:48;;;;;;;0.50;0.10;;;-0.60;99.90;;;;;;5054687;28;20465;-72
2024/01/19 05:11:16;;;;;;;2.87;2.77;;;-0.70;99.90;;;;;;5061524;28;20500;-72
2024/01/19 05:13:44;;;;;;;0.50;0.10;;;-0.70;99.90;;;;;;5059223;28;20525;-72
2024/01/19 05:16:12;;;;;;;0.50;0.10;;;-0.70;99.90;;;;;;5053103;28;20999;-72
2024/01/19 05:18:42;;;;;;;0.50;0.10;;;-0.80;99.90;;;;;;5052340;28;20438;-72
2024/01/19 05:21:10;;;;;;;0.50;0.10;;;-0.70;99.90;;;;;;5055434;28;20445;-72
2024/01/19 05:23:37;;;;;;;2.63;2.53;;;-0.70;99.90;;;;;;5056384;28;20465;-72
2024/01/19 05:26:06;;;;;;;0.50;0.10;;;-0.60;99.90;;;;;;5055142;28;20557;-73
2024/01/19 05:28:34;;;;;;;0.50;0.10;;;-0.60;99.90;;;;;;5055581;28;20469;-72
2024/01/19 05:31:02;;;;;;;0.50;0.10;;;-0.70;99.90;;;;;;5051281;28;20465;-72
2024/01/19 05:33:31;;;;;;;0.50;0.10;;;-0.70;99.90;;;;;;5051733;28;20446;-73
2024/01/19 05:36:06;;;;;;;0.50;0.10;;;-0.70;99.90;;;;;;5053392;28;20477;-72
2024/01/19 05:38:34;;;;;;;0.50;0.10;;;-0.60;99.90;;;;;;5049708;28;20449;-72
2024/01/19 05:41:02;;;;;;;0.50;0.10;;;-0.70;99.90;;;;;;5054407;28;20462;-72
2024/01/19 05:43:30;;;;;;;0.50;0.10;;;-0.70;99.90;;;;;;5058139;28;20488;-73
2024/01/19 05:45:58;;;;;;;0.50;0.10;;;-0.80;99.90;;;;;;5045253;28;20544;-73
2024/01/19 05:48:26;;;;;;;0.50;0.10;;;-0.80;99.90;;;;;;5054532;28;20978;-72
2024/01/19 05:50:54;;;;;;;0.50;0.13;;;-0.80;99.90;;;;;;5050401;28;20523;-72
2024/01/19 05:53:23;;;;;;;0.50;0.13;;;-0.80;99.90;;;;;;5043205;28;20434;-72
2024/01/19 05:55:52;;;;;;;0.50;0.10;;;-0.80;99.90;;;;;;5054645;28;20477;-72
2024/01/19 05:58:19;;;;;;;0.50;0.10;;;-0.80;99.90;;;;;;5054919;28;20492;-72
2024/01/19 06:00:49;;;;;;;0.50;0.10;;;-0.70;99.90;;;;;;5053947;28;20461;-72
2024/01/19 06:03:17;;;;;;;0.50;0.30;;;-0.70;99.90;;;;;;5055019;28;20473;-72
2024/01/19 06:05:45;;;;;;;0.50;0.10;;;-0.80;99.90;;;;;;5056114;28;20910;-72
2024/01/19 06:08:13;;;;;;;0.50;0.10;;;-0.70;99.90;;;;;;5054888;28;20448;-72
2024/01/19 06:10:43;;;;;;;0.50;0.10;;;-0.70;99.90;;;;;;5054363;28;20458;-72
2024/01/19 06:13:12;;;;;;;0.50;0.10;;;-0.70;99.90;;;;;;5054632;28;20448;-72
2024/01/19 06:15:40;;;;;;;0.50;0.10;;;;;;;;;;5054472;28;20458;-72
2024/01/19 06:18:08;;;;;;;1.23;1.23;;;-0.70;99.90;;;;;;5054245;28;20564;-72
2024/01/19 06:20:41;;;;;;;0.50;0.10;;;-0.70;99.90;;;;;;5045871;28;20827;-72
2024/01/19 06:23:09;;;;;;;0.50;0.10;;;-0.70;99.90;;;;;;5050637;28;20509;-74
2024/01/19 06:25:37;;;;;;;0.50;0.20;;;-0.70;99.90;;;;;;5049384;28;20468;-72
2024/01/19 06:28:07;;;;;;;1.70;1.13;;;-0.80;99.90;;;;;;5053914;28;20466;-73
2024/01/19 06:30:35;;;;;;;0.50;0.10;;;-0.90;99.90;;;;;;5053911;28;20453;-73
2024/01/19 06:33:05;;;;;;;0.50;0.10;;;-1.00;99.90;;;;;;5054460;28;20496;-73
2024/01/19 06:35:33;;;;;;;0.50;0.10;;;-1.00;99.90;;;;;;5054273;28;20494;-72
2024/01/19 06:38:02;;;;;;;0.50;0.10;;;-1.10;99.90;;;;;;5056884;28;20899;-72
2024/01/19 06:40:30;;;;;;;0.50;0.10;;;-1.10;99.90;;;;;;5054060;28;20452;-73
2024/01/19 06:42:58;;;;;;;0.50;0.20;;;0.50;99.90;;;;;;5045397;28;20575;-74
2024/01/19 06:45:29;;;;;;;0.50;0.10;;;-1.00;99.90;;;;;;5053169;28;20442;-73
2024/01/19 06:47:57;;;;;;;0.50;0.10;;;-1.00;99.90;;;;;;5055435;28;20458;-73
2024/01/19 06:50:25;;;;;;;0.50;0.10;;;-0.90;99.90;;;;;;5057282;28;20446;-74
2024/01/19 06:52:53;;;;;;;0.50;0.10;;;-0.90;99.90;;;;;;5057511;28;20442;-72
2024/01/19 06:55:24;;;;;;;0.50;0.10;;;-0.80;99.90;;;;;;5057706;28;20484;-73
2024/01/19 06:57:52;;;;;;;0.50;0.10;;;-0.80;99.90;;;;;;5056996;28;20533;-73
2024/01/19 07:00:21;;;;;;;0.50;0.10;;;-0.80;99.90;;;;;;5057478;28;20442;-73
2024/01/19 07:02:50;;;;;;;0.50;0.10;;;-0.80;99.90;;;;;;5053807;28;20876;-73
2024/01/19 07:05:18;;;;;;;0.50;0.10;;;-0.70;99.90;;;;;;5054017;28;20903;-73
2024/01/19 07:07:46;;;;;;;0.50;0.10;;;-0.70;99.90;;;;;;5047804;28;20474;-72
2024/01/19 07:10:14;;;;;;;0.50;0.10;;;-0.70;99.90;;;;;;5054299;28;20814;-73
2024/01/19 07:12:42;;;;;;;0.50;0.10;;;-0.70;99.90;;;;;;5046591;28;20473;-73
2024/01/19 07:15:10;;;;;;;0.50;0.10;;;-0.70;99.90;;;;;;5054280;28;20445;-73
2024/01/19 07:17:38;;;;;;;0.50;0.10;;;-0.70;99.90;;;;;;5059737;28;20476;-72
2024/01/19 07:20:09;;;;;;;0.50;0.10;;;-0.70;99.90;;;;;;5068816;28;20442;-72
2024/01/19 07:22:37;;;;;;;0.50;0.10;;;-0.70;99.90;;;;;;5068957;28;20493;-73
2024/01/19 07:25:06;;;;;;;0.50;0.10;;;-0.80;99.90;;;;;;5063981;28;20447;-73
2024/01/19 07:27:34;;;;;;;0.60;0.40;;;-0.90;99.90;;;;;;5065072;28;20462;-72
2024/01/19 07:30:03;;;;;;;0.50;0.10;;;-0.90;99.90;;;;;;5047192;28;20477;-73
2024/01/19 07:32:32;;;;;;;0.50;0.10;;;-0.90;99.90;;;;;;5054589;28;20529;-73
2024/01/19 07:35:20;;;;;;;0.50;0.10;;;-0.80;99.90;;;;;;5054974;28;20449;-73
2024/01/19 07:37:48;;;;;;;0.50;0.10;;;-0.80;99.90;;;;;;5055121;28;20462;-75
2024/01/19 07:40:16;;;;;;;2.20;2.10;;;-0.70;99.90;;;;;;5055897;28;20875;-73
2024/01/19 07:42:44;;;;;;;0.50;0.10;;;-0.70;99.90;;;;;;5054614;28;20481;-73
2024/01/19 07:45:12;;;;;;;0.50;0.20;;;-0.60;99.90;;;;;;5053173;28;20505;-73
2024/01/19 07:47:40;;;;;;;0.50;0.10;;;-0.60;99.90;;;;;;5053448;28;20477;-73
2024/01/19 07:50:10;;;;;;;0.50;0.10;;;-0.60;99.90;;;;;;5052564;28;20456;-73
2024/01/19 07:52:40;;;;;;;0.50;0.20;;;-0.60;99.90;;;;;;5052996;28;20481;-73
2024/01/19 07:55:09;;;;;;;0.50;0.10;;;-0.60;99.90;;;;;;5053533;28;20446;-73
2024/01/19 07:57:37;;;;;;;0.50;0.20;;;-0.70;99.90;;;;;;5053681;28;20490;-73
2024/01/19 08:00:08;;;;;;;0.63;0.60;;;-0.70;99.90;;;;;;5051685;28;20934;-74
2024/01/19 08:02:36;;;;;;;0.50;0.10;;;-0.70;99.90;;;;;;5052175;28;20450;-75
2024/01/19 08:05:04;;;;;;;1.40;1.30;;;-0.70;99.90;;;;;;5052553;28;20444;-74
2024/01/19 08:07:32;;;;;;;0.60;0.50;;;-0.70;99.90;;;;;;5052019;28;20916;-73
2024/01/19 08:10:02;;;;;;;0.50;0.10;;;-0.70;99.90;;;;;;5053132;28;20852;-73
2024/01/19 08:12:30;;;;;;;0.50;0.10;;;-0.60;99.90;;;;;;5052159;28;20500;-72
2024/01/19 08:14:57;;;;;;;0.80;0.40;;;-0.50;99.90;;;;;;5051927;28;20541;-73
2024/01/19 08:17:26;;;;;;;0.77;0.50;;;-0.40;99.90;;;;;;5051567;28;20832;-72
2024/01/19 08:19:54;;;;;;;0.50;0.10;;;-0.40;99.90;;;;;;5051500;28;20516;-73
2024/01/19 08:22:22;;;;;;;0.50;0.10;;;-0.30;99.90;;;;;;5048591;28;20454;-72
2024/01/19 08:24:50;;;;;;;0.50;0.10;;;;;;;;;;5045553;28;20484;-72
2024/01/19 08:27:19;;;;;;;0.50;0.10;;;-0.20;99.90;;;;;;5051461;28;20738;-72
2024/01/19 08:29:47;;;;;;;0.50;0.10;;;-0.20;99.90;;;;;;5051751;28;20875;-73
2024/01/19 08:32:16;;;;;;;0.50;0.10;;;;;;;;;;5052518;28;20446;-74
2024/01/19 08:34:44;;;;;;;0.50;0.10;;;-0.20;99.90;;;;;;5047412;28;20579;-74
2024/01/19 08:37:13;;;;;;;0.50;0.10;;;-0.10;99.90;;;;;;5046714;28;20497;-73
2024/01/19 08:39:41;;;;;;;0.60;0.30;;;0.00;99.90;;;;;;5052621;28;20489;-73
2024/01/19 08:42:08;;;;;;;0.50;0.10;;;0.00;99.90;;;;;;5046847;28;20451;-72
2024/01/19 08:44:38;;;;;;;0.50;0.10;;;0.10;99.90;;;;;;5049511;28;20561;-74
2024/01/19 08:47:07;;;;;;;0.50;0.10;;;0.20;99.90;;;;;;5053637;28;20470;-72
2024/01/19 08:49:35;;;;;;;0.50;0.10;;;0.30;99.90;;;;;;5052111;28;20449;-72
2024/01/19 08:52:03;;;;;;;0.50;0.10;;;0.30;99.90;;;;;;5052541;28;20453;-75
2024/01/19 08:54:31;;;;;;;1.13;1.13;;;0.30;99.90;;;;;;5051190;28;20477;-72
2024/01/19 08:56:59;;;;;;;0.50;0.10;;;0.40;99.90;;;;;;5050981;28;20873;-72
2024/01/19 08:59:29;;;;;;;0.50;0.10;;;0.30;99.90;;;;;;5051741;28;20465;-73
2024/01/19 09:01:58;;;;;;;1.27;1.17;;;0.30;99.90;;;;;;5053034;28;20915;-73
2024/01/19 09:04:27;;;;;;;0.83;0.83;;;0.20;99.90;;;;;;5053744;28;20648;-72
2024/01/19 09:06:55;;;;;;;0.50;0.10;;;0.30;99.90;;;;;;5051946;28;20472;-74
2024/01/19 09:09:26;;;;;;;0.50;0.10;;;0.30;99.90;;;;;;5052082;28;20445;-74
2024/01/19 09:11:55;;;;;;;0.50;0.10;;;0.30;99.90;;;;;;5052101;28;20474;-72
2024/01/19 09:14:23;;;;;;;0.70;0.37;;;0.30;99.90;;;;;;5049626;28;20499;-72
2024/01/19 09:16:51;;;;;;;0.50;0.20;;;;;;;;;;5052337;28;20476;-72
2024/01/19 09:19:21;;;;;;;1.80;1.70;;;0.50;99.90;;;;;;5051749;28;20442;-73
2024/01/19 09:21:50;;;;;;;0.50;0.10;;;0.50;99.90;;;;;;5050214;28;20462;-73
2024/01/19 09:24:19;;;;;;;0.50;0.10;;;0.60;99.90;;;;;;5049332;28;20569;-73
2024/01/19 09:26:47;;;;;;;0.50;0.10;;;0.70;99.90;;;;;;5048656;28;20512;-74
2024/01/19 09:29:16;;;;;;;0.50;0.10;;;0.70;99.90;;;;;;5044867;28;20477;-73
2024/01/19 09:31:44;;;;;;;0.50;0.10;;;0.90;99.90;;;;;;5048960;28;20461;-75
2024/01/19 09:34:13;;;;;;;0.50;0.20;;;1.00;99.90;;;;;;5046235;28;20468;-74
2024/01/19 09:36:42;;;;;;;0.60;0.37;;;1.00;99.90;;;;;;5043419;28;20814;-74
2024/01/19 09:39:10;;;;;;;0.50;0.20;;;1.00;99.90;;;;;;5049166;28;20441;-73
2024/01/19 09:41:39;;;;;;;0.50;0.10;;;1.00;99.90;;;;;;5048674;28;20532;-73
2024/01/19 09:44:09;;;;;;;0.50;0.10;;;1.10;99.90;;;;;;5048491;28;20486;-75
2024/01/19 09:46:55;;;;;;;0.50;0.10;;;1.10;99.90;;;;;;5050450;28;20470;-74
2024/01/19 09:49:34;;;;;;;0.50;0.10;;;1.20;99.90;;;;;;5050876;28;20438;-74
2024/01/19 09:52:11;;;;;;;0.50;0.10;;;1.20;99.90;;;;;;5050511;28;20906;-74
2024/01/19 09:54:40;;;;;;;1.50;1.40;;;1.20;99.90;;;;;;5050827;28;20437;-74
2024/01/19 09:57:08;;;;;;;0.50;0.10;;;1.30;99.90;;;;;;5050045;28;20468;-73
2024/01/19 09:59:36;;;;;;;0.50;0.10;;;1.30;99.90;;;;;;5050290;28;20450;-76
2024/01/19 10:02:07;;;;;;;0.50;0.10;;;1.40;99.90;;;;;;5050375;28;20471;-76
2024/01/19 10:04:35;;;;;;;0.50;0.10;;;1.40;99.90;;;;;;5049484;28;20510;-76
2024/01/19 10:07:05;;;;;;;0.50;0.10;;;1.40;99.90;;;;;;5052680;28;20970;-74
2024/01/19 10:09:33;;;;;;;0.50;0.10;;;1.40;99.90;;;;;;5053538;28;20473;-73
2024/01/19 10:12:01;;;;;;;0.50;0.10;;;1.40;99.90;;;;;;5053769;28;20484;-75
2024/01/19 10:14:29;;;;;;;0.50;0.10;;;1.40;99.90;;;;;;5051844;28;20458;-74
2024/01/19 10:16:58;;;;;;;0.50;0.10;;;1.30;99.90;;;;;;5056382;28;20568;-75
2024/01/19 10:19:27;;;;;;;0.50;0.10;;;1.40;99.90;;;;;;5053724;28;20450;-75
2024/01/19 10:21:55;;;;;;;0.50;0.10;;;1.30;99.90;;;;;;5054178;28;21117;-74
2024/01/19 10:24:24;;;;;;;0.50;0.10;;;1.40;99.90;;;;;;5053670;28;20865;-73
2024/01/19 10:26:54;;;;;;;1.47;1.27;;;1.40;99.90;;;;;;5052058;28;20605;-75
2024/01/19 10:29:22;;;;;;;0.50;0.10;;;1.40;99.90;;;;;;5052821;28;20449;-74
2024/01/19 10:31:53;;;;;;;0.50;0.10;;;1.40;99.90;;;;;;5053012;28;20438;-73
2024/01/19 10:34:23;;;;;;;0.50;0.10;;;1.40;99.90;;;;;;5052881;28;20516;-74
2024/01/19 10:36:52;;;;;;;0.50;0.10;;;1.50;99.90;;;;;;5053263;28;20501;-74
2024/01/19 10:39:21;;;;;;;0.50;0.10;;;1.50;99.90;;;;;;5052562;28;20904;-74
2024/01/19 10:41:52;;;;;;;0.50;0.10;;;1.60;99.90;;;;;;5053063;28;20529;-73
2024/01/19 10:44:22;;;;;;;0.50;0.10;;;1.60;99.90;;;;;;5053010;28;20495;-73
2024/01/19 10:46:51;;;;;;;0.50;0.10;;;;;;;;;;5053808;28;20467;-75
2024/01/19 10:49:19;;;;;;;0.50;0.20;;;1.50;99.90;;;;;;5052788;28;20500;-73
2024/01/19 10:51:48;;;;;;;0.50;0.10;;;1.50;99.90;;;;;;5048073;28;20462;-73
2024/01/19 10:54:24;;;;;;;0.80;0.40;;;1.50;99.90;;;;;;5052657;28;20961;-74
2024/01/19 10:57:03;;;;;;;0.50;0.20;;;1.50;99.90;;;;;;5050945;28;20473;-74
2024/01/19 10:59:31;;;;;;;0.50;0.10;;;1.60;99.90;;;;;;5052423;28;20493;-75
2024/01/19 11:02:00;;;;;;;0.53;0.37;;;1.60;99.90;;;;;;5057911;28;20504;-74
2024/01/19 11:04:28;;;;;;;0.50;0.20;;;1.50;99.90;;;;;;5051850;28;21067;-74
2024/01/19 11:06:56;;;;;;;0.50;0.10;;;1.50;99.90;;;;;;5054955;28;20478;-73
2024/01/19 11:09:25;;;;;;;0.50;0.10;;;1.40;99.90;;;;;;5051041;28;20485;-72
2024/01/19 11:11:57;;;;;;;0.60;0.20;;;1.50;99.90;;;;;;5051379;28;20469;-75
2024/01/19 11:14:27;;;;;;;0.50;0.10;;;1.50;99.90;;;;;;5051167;28;20470;-74
2024/01/19 11:16:56;;;;;;;0.50;0.20;;;1.50;99.90;;;;;;5056316;28;20477;-73
2024/01/19 11:19:25;;;;;;;0.77;0.47;;;1.50;99.90;;;;;;5051061;28;20866;-74
2024/01/19 11:21:54;;;;;;;0.77;0.70;;;;;;;;;;5048581;28;21019;-72
2024/01/19 11:24:24;;;;;;;0.50;0.10;;;1.60;99.90;;;;;;5052426;28;20480;-71
2024/01/19 11:27:07;;;;;;;0.50;0.10;;;1.60;99.90;;;;;;5052975;28;20458;-72
2024/01/19 11:29:41;;;;;;;1.03;1.03;;;1.70;99.90;;;;;;5052850;28;20450;-73
2024/01/19 11:32:10;;;;;;;0.50;0.10;;;;;;;;;;5052545;28;21079;-73
2024/01/19 11:34:45;;;;;;;0.50;0.10;;;1.80;99.90;;;;;;5051474;28;20521;-73
2024/01/19 11:37:41;;;;;;;0.50;0.20;;;1.80;99.90;;;;;;5051469;28;20465;-72
2024/01/19 11:40:10;;;;;;;0.50;0.10;;;1.80;99.90;;;;;;5049969;28;20957;-74
2024/01/19 11:42:48;;;;;;;0.50;0.10;;;1.90;99.90;;;;;;5051484;28;20445;-71
2024/01/19 11:45:40;;;;;;;1.33;1.20;;;1.80;99.90;;;;;;5051278;28;21009;-74
2024/01/19 11:48:09;;;;;;;0.60;0.43;;;1.80;99.90;;;;;;5047344;28;20477;-74
2024/01/19 11:50:41;;;;;;;0.57;0.50;;;1.70;99.90;;;;;;5051884;28;20474;-73
2024/01/19 11:53:10;;;;;;;0.50;0.10;;;1.80;99.90;;;;;;5050671;28;20485;-73
2024/01/19 11:55:41;;;;;;;0.50;0.10;;;1.70;99.90;;;;;;5050073;28;20520;-72
2024/01/19 11:58:30;;;;;;;0.50;0.23;;;1.70;99.90;;;;;;5049847;28;20553;-72
2024/01/19 12:01:00;;;;;;;12.27;3.70;;;1.50;99.90;;;;;;5050393;28;20430;-73
2024/01/19 12:03:29;;;;;;;0.60;0.40;;;1.30;99.90;;;;;;5049274;28;20484;-73
2024/01/19 12:06:00;;;;;;;1.80;1.70;;;1.30;99.90;;;;;;5051778;28;20601;-73
2024/01/19 12:08:29;;;;;;;1.30;1.13;;;1.30;99.90;;;;;;5048316;28;20458;-73
2024/01/19 12:11:08;;;;;;;3.17;3.07;;;1.20;99.90;;;;;;5046765;28;20481;-73
2024/01/19 12:13:39;;;;;;;0.93;0.83;;;1.20;99.90;;;;;;5047858;28;20442;-73
2024/01/19 12:16:20;;;;;;;1.33;1.23;;;1.20;99.90;;;;;;5049408;28;20465;-73
2024/01/19 12:18:53;;;;;;;2.00;1.50;;;1.10;99.90;;;;;;5046874;28;20442;-74
2024/01/19 12:21:22;;;;;;;0.60;0.53;;;1.10;99.90;;;;;;5048070;28;21024;-72
2024/01/19 12:23:54;;;;;;;1.77;1.70;;;1.20;99.90;;;;;;5045805;28;20512;-75
2024/01/19 12:26:23;;;;;;;0.60;0.50;;;1.20;99.90;;;;;;5047826;28;20492;-76
2024/01/19 12:28:55;;;;;;;1.60;1.50;;;1.10;99.90;;;;;;5049570;28;20442;-74
2024/01/19 12:31:24;;;;;;;0.80;0.60;;;1.30;99.90;;;;;;5050741;28;20449;-73
2024/01/19 12:33:53;;;;;;;1.10;0.77;;;2.40;99.90;;;;;;5050669;28;20442;-75
2024/01/19 12:36:25;;;;;;;1.40;1.30;;;1.30;99.90;;;;;;5050807;28;20462;-73
2024/01/19 12:39:05;;;;;;;0.50;0.20;;;1.20;99.90;;;;;;5050105;28;20480;-72
2024/01/19 12:41:33;;;;;;;0.50;0.10;;;1.30;99.90;;;;;;5049685;28;20446;-75
2024/01/19 12:44:03;;;;;;;0.50;0.10;;;1.30;99.90;;;;;;5051407;28;20446;-75
2024/01/19 12:46:31;;;;;;;1.97;0.37;;;1.40;99.90;;;;;;5050391;28;20481;-74
2024/01/19 12:49:02;;;;;;;0.50;0.20;;;;;;;;;;5050503;28;20469;-74
2024/01/19 12:51:31;;;;;;;0.60;0.50;;;1.50;99.90;;;;;;5050541;28;20454;-73
2024/01/19 12:53:59;;;;;;;1.17;0.93;;;1.60;99.90;;;;;;5050612;28;20950;-73
2024/01/19 12:56:28;;;;;;;2.70;1.60;;;1.60;99.90;;;;;;5050270;28;20488;-74
2024/01/19 12:59:09;;;;;;;1.20;0.77;;;1.50;99.90;;;;;;5050762;28;20473;-74
2024/01/19 13:01:38;;;;;;;4.60;2.30;;;1.40;99.90;;;;;;5051811;28;20516;-72
2024/01/19 13:04:06;;;;;;;4.03;2.13;;;1.40;99.90;;;;;;5053204;28;20445;-72
2024/01/19 13:06:40;;;;;;;0.50;0.10;;;1.50;99.90;;;;;;5053713;28;20493;-72